Terminal Aerodrome Forecast
Issued by NWS Wilmington, OH

Current Version | Previous Version | Graphics & Text | Print | Product List | Glossary On
Versions: 1 2 3 4 5 6 7 8 9 10 11 12 13 14 15 16 17 18 19 20 21
000
FTUS41 KILN 181400 AAA
TAFCVG
TAF AMD
KCVG 181458Z 1815/1918 24003KT P6SM SCT070 BKN150
     FM181800 28006KT P6SM BKN060
     FM190000 35005KT P6SM SCT050
     FM190800 03009KT P6SM SKC
     FM191500 06012KT P6SM SKC=

USA.gov is the U.S. government's official web portal to all federal, state and local government web resources and services.